createdAt,value
2022-12-12T00:00:55.197Z,-7.14
2022-12-12T00:03:24.230Z,-7.15
2022-12-12T00:05:55.223Z,-7.18
2022-12-12T00:08:22.941Z,-7.17
2022-12-12T00:10:50.648Z,-7.17
2022-12-12T00:13:18.253Z,-7.16
2022-12-12T00:15:47.433Z,-7.14
2022-12-12T00:18:15.083Z,-7.12
2022-12-12T00:20:42.767Z,-7.12
2022-12-12T00:23:10.385Z,-7.11
2022-12-12T00:25:38.047Z,-7.11
2022-12-12T00:28:05.971Z,-7.12
2022-12-12T00:30:33.580Z,-7.13
2022-12-12T00:33:02.649Z,-7.14
2022-12-12T00:35:30.267Z,-7.16
2022-12-12T00:37:57.871Z,-7.18
2022-12-12T00:40:25.540Z,-7.20
2022-12-12T00:42:53.123Z,-7.21
2022-12-12T00:45:20.706Z,-7.24
2022-12-12T00:47:48.374Z,-7.23
2022-12-12T00:50:17.427Z,-7.22
2022-12-12T00:52:45.038Z,-7.20
2022-12-12T00:55:13.361Z,-7.23
2022-12-12T00:57:41.209Z,-7.22
2022-12-12T01:00:10.607Z,-7.23
2022-12-12T01:02:38.232Z,-7.25
2022-12-12T01:05:07.309Z,-7.25
2022-12-12T01:07:36.371Z,-7.29
2022-12-12T01:10:05.626Z,-7.29
2022-12-12T01:12:33.620Z,-7.29
2022-12-12T01:15:01.394Z,-7.28
2022-12-12T01:17:29.870Z,-7.26
2022-12-12T01:19:57.466Z,-7.25
2022-12-12T01:22:25.099Z,-7.18
2022-12-12T01:24:56.913Z,-7.10
2022-12-12T01:27:24.583Z,-6.97
2022-12-12T01:29:52.196Z,-6.83
2022-12-12T01:32:19.827Z,-6.67
2022-12-12T01:34:47.411Z,-6.51
2022-12-12T01:37:14.974Z,-6.41
2022-12-12T01:39:43.656Z,-6.32
2022-12-12T01:42:14.603Z,-6.24
2022-12-12T01:44:45.648Z,-6.18
2022-12-12T01:47:13.988Z,-6.19
2022-12-12T01:49:43.936Z,-6.16
2022-12-12T01:52:15.008Z,-6.18
2022-12-12T01:54:48.019Z,-6.19
2022-12-12T01:57:21.791Z,-6.19
2022-12-12T01:59:49.532Z,-6.24
2022-12-12T02:02:17.423Z,-6.25
2022-12-12T02:04:45.182Z,-6.29
2022-12-12T02:07:12.979Z,-6.33
2022-12-12T02:09:41.623Z,-6.33
2022-12-12T02:12:13.703Z,-6.35
2022-12-12T02:14:48.118Z,-6.36
2022-12-12T02:17:30.273Z,-6.38
2022-12-12T02:20:38.340Z,-6.42
2022-12-12T02:23:40.704Z,-6.45
2022-12-12T02:26:44.963Z,-6.49
2022-12-12T02:29:57.231Z,-6.51
2022-12-12T02:32:33.427Z,-6.53
2022-12-12T02:35:07.139Z,-6.57
2022-12-12T02:37:42.215Z,-6.57
2022-12-12T02:40:20.262Z,-6.57
2022-12-12T02:42:56.331Z,-6.58
2022-12-12T02:45:30.235Z,-6.60
2022-12-12T02:48:05.026Z,-6.63
2022-12-12T02:50:34.028Z,-6.67
2022-12-12T02:53:01.652Z,-6.71
2022-12-12T02:55:32.584Z,-6.76
2022-12-12T02:58:04.707Z,-6.81
2022-12-12T03:00:40.740Z,-6.81
2022-12-12T03:03:47.948Z,-6.81
2022-12-12T03:06:56.010Z,-6.86
2022-12-12T03:09:30.999Z,-6.90
2022-12-12T03:12:08.178Z,-6.94
2022-12-12T03:14:49.191Z,-6.98
2022-12-12T03:17:25.472Z,-7.02
2022-12-12T03:20:01.007Z,-7.06
2022-12-12T03:22:35.403Z,-7.07
2022-12-12T03:25:09.022Z,-7.09
2022-12-12T03:27:41.224Z,-7.13
2022-12-12T03:30:13.384Z,-7.14
2022-12-12T03:32:47.642Z,-7.15
2022-12-12T03:35:21.993Z,-7.17
2022-12-12T03:37:54.462Z,-7.18
2022-12-12T03:40:29.829Z,-7.20
2022-12-12T03:43:04.314Z,-7.20
2022-12-12T03:45:38.039Z,-7.18
2022-12-12T03:48:10.755Z,-7.17
2022-12-12T03:50:45.479Z,-7.16
2022-12-12T03:53:18.227Z,-7.14
2022-12-12T03:55:50.274Z,-7.12
2022-12-12T03:58:24.220Z,-7.12
2022-12-12T04:00:54.612Z,-7.14
2022-12-12T04:03:28.391Z,-7.13
2022-12-12T04:06:20.575Z,-7.09
2022-12-12T04:09:02.965Z,-7.05
2022-12-12T04:11:53.540Z,-6.98
2022-12-12T04:14:33.468Z,-6.86
2022-12-12T04:17:03.442Z,-6.75
2022-12-12T04:19:52.614Z,-6.65
2022-12-12T04:22:43.732Z,-6.54
2022-12-12T04:25:26.234Z,-6.46
2022-12-12T04:28:01.900Z,-6.44
2022-12-12T04:30:32.010Z,-6.41
2022-12-12T04:33:06.936Z,-6.39
2022-12-12T04:35:39.824Z,-6.40
2022-12-12T04:38:11.714Z,-6.39
2022-12-12T04:40:44.282Z,-6.39
2022-12-12T04:43:16.682Z,-6.40
2022-12-12T04:45:48.300Z,-6.40
2022-12-12T04:48:18.587Z,-6.42
2022-12-12T04:50:49.549Z,-6.47
2022-12-12T04:53:25.704Z,-6.49
2022-12-12T04:55:58.374Z,-6.53
2022-12-12T04:58:26.374Z,-6.59
2022-12-12T05:00:59.414Z,-6.67
2022-12-12T05:03:33.528Z,-6.70
2022-12-12T05:06:07.599Z,-6.72
2022-12-12T05:08:39.979Z,-6.73
2022-12-12T05:11:08.614Z,-6.72
2022-12-12T05:13:38.830Z,-6.65
2022-12-12T05:16:15.690Z,-6.65
2022-12-12T05:18:43.388Z,-6.57
2022-12-12T05:21:10.991Z,-6.47
2022-12-12T05:23:39.954Z,-6.37
2022-12-12T05:26:08.828Z,-6.25
2022-12-12T05:28:37.314Z,-6.11
2022-12-12T05:31:05.091Z,-5.98
2022-12-12T05:33:32.875Z,-5.89
2022-12-12T05:36:00.492Z,-5.79
2022-12-12T05:38:28.129Z,-5.68
2022-12-12T05:40:57.108Z,-5.56
2022-12-12T05:43:24.700Z,-5.47
2022-12-12T05:45:52.829Z,-5.37
2022-12-12T05:48:24.285Z,-5.28
2022-12-12T05:50:52.437Z,-5.21
2022-12-12T05:53:20.160Z,-5.12
2022-12-12T05:55:49.919Z,-5.06
2022-12-12T05:58:18.940Z,-4.99
2022-12-12T06:00:47.951Z,-4.95
2022-12-12T06:03:15.915Z,-4.91
2022-12-12T06:05:43.542Z,-4.88
2022-12-12T06:08:11.303Z,-4.87
2022-12-12T06:10:38.922Z,-4.87
2022-12-12T06:13:06.830Z,-4.87
2022-12-12T06:15:35.836Z,-4.89
2022-12-12T06:18:03.463Z,-4.86
2022-12-12T06:20:32.426Z,-4.82
2022-12-12T06:23:00.022Z,-4.80
2022-12-12T06:25:27.687Z,-4.82
2022-12-12T06:27:55.265Z,-4.81
2022-12-12T06:30:22.843Z,-4.81
2022-12-12T06:32:51.800Z,-4.81
2022-12-12T06:35:19.590Z,-4.82
2022-12-12T06:37:48.442Z,-4.81
2022-12-12T06:40:16.388Z,-4.87
2022-12-12T06:42:48.215Z,-4.91
2022-12-12T06:45:16.761Z,-4.97
2022-12-12T06:47:44.624Z,-5.03
2022-12-12T06:50:15.051Z,-5.10
2022-12-12T06:52:44.391Z,-5.20
2022-12-12T06:55:12.328Z,-5.30
2022-12-12T06:57:40.087Z,-5.42
2022-12-12T07:00:09.929Z,-5.51
2022-12-12T07:02:37.569Z,-5.60
2022-12-12T07:05:05.751Z,-5.68
2022-12-12T07:07:34.992Z,-5.75
2022-12-12T07:10:02.668Z,-5.83
2022-12-12T07:12:30.325Z,-5.88
2022-12-12T07:14:57.935Z,-5.94
2022-12-12T07:17:25.573Z,-5.99
2022-12-12T07:19:53.152Z,-6.03
2022-12-12T07:22:20.843Z,-6.07
2022-12-12T07:24:51.346Z,-6.08
2022-12-12T07:27:21.834Z,-6.11
2022-12-12T07:29:49.666Z,-6.14
2022-12-12T07:32:17.289Z,-6.19
2022-12-12T07:34:44.986Z,-6.22
2022-12-12T07:37:12.582Z,-6.23
2022-12-12T07:39:40.242Z,-6.24
2022-12-12T07:42:09.215Z,-6.25
2022-12-12T07:44:36.831Z,-6.25
2022-12-12T07:47:04.484Z,-6.24
2022-12-12T07:49:32.108Z,-6.20
2022-12-12T07:51:59.748Z,-6.13
2022-12-12T07:54:27.339Z,-6.06
2022-12-12T07:56:54.917Z,-5.95
2022-12-12T07:59:23.839Z,-5.88
2022-12-12T08:01:51.471Z,-5.79
2022-12-12T08:04:19.264Z,-5.69
2022-12-12T08:06:46.895Z,-5.57
2022-12-12T08:09:14.503Z,-5.50
2022-12-12T08:11:46.251Z,-5.40
2022-12-12T08:14:14.346Z,-5.27
2022-12-12T08:16:43.359Z,-5.12
2022-12-12T08:19:10.963Z,-4.97
2022-12-12T08:21:38.567Z,-4.88
2022-12-12T08:24:06.658Z,-4.78
2022-12-12T08:26:34.272Z,-4.64
2022-12-12T08:29:01.892Z,-4.52
2022-12-12T08:31:30.232Z,-4.39
2022-12-12T08:34:00.857Z,-4.27
2022-12-12T08:36:30.936Z,-4.17
2022-12-12T08:38:59.557Z,-3.99
2022-12-12T08:41:27.146Z,-3.85
2022-12-12T08:43:55.007Z,-3.77
2022-12-12T08:46:22.991Z,-3.63
2022-12-12T08:48:51.122Z,-3.44
2022-12-12T08:51:20.393Z,-3.29
2022-12-12T08:53:49.367Z,-3.13
2022-12-12T08:56:18.630Z,-3.01
2022-12-12T08:58:46.527Z,-2.83
2022-12-12T09:01:16.391Z,-2.62
2022-12-12T09:03:44.652Z,-2.45
2022-12-12T09:06:12.886Z,-2.30
2022-12-12T09:08:42.610Z,-2.14
2022-12-12T09:11:10.769Z,-1.96
2022-12-12T09:13:39.186Z,-1.76
2022-12-12T09:16:08.250Z,-1.61
2022-12-12T09:18:36.891Z,-1.49
2022-12-12T09:21:05.460Z,-1.32
2022-12-12T09:23:33.463Z,-1.17
2022-12-12T09:26:07.433Z,-1.07
2022-12-12T09:28:35.756Z,-0.95
2022-12-12T09:31:05.323Z,-0.79
2022-12-12T09:33:32.971Z,-0.73
2022-12-12T09:36:01.334Z,-0.69
2022-12-12T09:38:29.400Z,-0.74
2022-12-12T09:41:00.296Z,-0.83
2022-12-12T09:43:32.882Z,-0.84
2022-12-12T09:46:01.441Z,-0.77
2022-12-12T09:48:33.962Z,-0.66
2022-12-12T09:51:01.554Z,-0.65
2022-12-12T09:53:29.660Z,-0.60
2022-12-12T09:56:05.817Z,-0.46
2022-12-12T09:58:46.834Z,-0.31
2022-12-12T10:01:24.757Z,-0.21
2022-12-12T10:04:03.076Z,-0.22
2022-12-12T10:06:39.807Z,-0.06
2022-12-12T10:09:26.465Z,0.10
2022-12-12T10:11:55.337Z,0.22
2022-12-12T10:14:32.238Z,0.27
2022-12-12T10:17:01.605Z,0.39
2022-12-12T10:19:32.346Z,0.45
2022-12-12T10:22:05.557Z,0.29
2022-12-12T10:24:40.807Z,0.34
2022-12-12T10:27:11.895Z,0.39
2022-12-12T10:29:44.828Z,0.35
2022-12-12T10:32:21.218Z,0.29
2022-12-12T10:34:59.828Z,0.45
2022-12-12T10:37:39.574Z,0.48
2022-12-12T10:40:25.792Z,0.48
2022-12-12T10:43:01.943Z,0.58
2022-12-12T10:45:45.521Z,0.62
2022-12-12T10:48:13.300Z,0.59
2022-12-12T10:50:45.583Z,0.68
2022-12-12T10:53:13.604Z,0.79
2022-12-12T10:55:48.491Z,0.80
2022-12-12T10:58:17.080Z,0.79
2022-12-12T11:00:47.687Z,0.80
2022-12-12T11:03:27.010Z,0.77
2022-12-12T11:05:56.143Z,0.79
2022-12-12T11:08:28.674Z,0.78
2022-12-12T11:11:02.846Z,0.82
2022-12-12T11:13:31.187Z,0.81
2022-12-12T11:16:02.914Z,0.88
2022-12-12T11:18:30.904Z,0.93
2022-12-12T11:21:07.130Z,0.94
2022-12-12T11:23:36.705Z,0.98
2022-12-12T11:26:12.135Z,0.99
2022-12-12T11:28:41.315Z,0.91
2022-12-12T11:31:13.034Z,0.87
2022-12-12T11:33:46.030Z,0.89
2022-12-12T11:36:16.592Z,0.91
2022-12-12T11:38:49.856Z,0.96
2022-12-12T11:41:17.763Z,0.99
2022-12-12T11:43:59.857Z,1.01
2022-12-12T11:46:30.681Z,1.09
2022-12-12T11:49:00.972Z,1.13
2022-12-12T11:51:35.724Z,1.17
2022-12-12T11:54:08.536Z,1.20
2022-12-12T11:56:44.996Z,1.22
2022-12-12T11:59:40.048Z,1.17
2022-12-12T12:02:41.775Z,1.17
2022-12-12T12:05:21.395Z,1.17
2022-12-12T12:07:58.910Z,1.19
2022-12-12T12:10:42.204Z,1.22
2022-12-12T12:13:23.696Z,1.23
2022-12-12T12:15:59.611Z,1.24
2022-12-12T12:18:44.053Z,1.23
2022-12-12T12:21:38.912Z,1.22
2022-12-12T12:24:24.970Z,1.25
2022-12-12T12:27:05.015Z,1.30
2022-12-12T12:29:53.415Z,1.33
2022-12-12T12:32:32.988Z,1.33
2022-12-12T12:35:19.915Z,1.33
2022-12-12T12:38:02.073Z,1.33
2022-12-12T12:40:46.596Z,1.30
2022-12-12T12:43:26.679Z,1.29
2022-12-12T12:45:59.989Z,1.29
2022-12-12T12:48:31.504Z,1.27
2022-12-12T12:51:07.770Z,1.21
2022-12-12T12:53:41.587Z,1.12
2022-12-12T12:56:23.684Z,1.03
2022-12-12T12:58:56.423Z,0.99
2022-12-12T13:01:28.184Z,0.93
2022-12-12T13:04:02.131Z,0.90
2022-12-12T13:06:42.580Z,0.74
2022-12-12T13:09:23.410Z,0.66
2022-12-12T13:11:55.104Z,0.57
2022-12-12T13:14:30.392Z,0.51
2022-12-12T13:17:00.403Z,0.46
2022-12-12T13:19:35.623Z,0.40
2022-12-12T13:22:09.436Z,0.34
2022-12-12T13:24:44.730Z,0.23
2022-12-12T13:27:19.549Z,0.11
2022-12-12T13:29:52.324Z,-0.01
2022-12-12T13:32:52.128Z,-0.11
2022-12-12T13:35:28.572Z,-0.20
2022-12-12T13:37:58.441Z,-0.31
2022-12-12T13:40:30.307Z,-0.40
2022-12-12T13:43:07.227Z,-0.49
2022-12-12T13:45:44.990Z,-0.58
2022-12-12T13:48:38.201Z,-0.69
2022-12-12T13:51:36.113Z,-0.77
2022-12-12T13:54:40.991Z,-0.85
2022-12-12T13:57:15.870Z,-0.96
2022-12-12T14:00:19.739Z,-1.04
2022-12-12T14:03:12.120Z,-1.09
2022-12-12T14:05:42.176Z,-1.17
2022-12-12T14:08:22.775Z,-1.24
2022-12-12T14:10:58.233Z,-1.30
2022-12-12T14:13:36.035Z,-1.35
2022-12-12T14:16:07.919Z,-1.41
2022-12-12T14:18:39.880Z,-1.47
2022-12-12T14:21:11.122Z,-1.50
2022-12-12T14:23:42.284Z,-1.53
2022-12-12T14:26:48.718Z,-1.53
2022-12-12T14:29:28.713Z,-1.55
2022-12-12T14:32:15.780Z,-1.55
2022-12-12T14:34:54.263Z,-1.55
2022-12-12T14:37:37.392Z,-1.55
2022-12-12T14:40:14.187Z,-1.56
2022-12-12T14:43:20.661Z,-1.55
2022-12-12T14:45:38.664Z,-1.55
2022-12-12T14:48:18.666Z,-1.54
2022-12-12T14:50:50.231Z,-1.56
2022-12-12T14:53:20.132Z,-1.57
2022-12-12T14:55:50.602Z,-1.59
2022-12-12T14:58:21.307Z,-1.59
2022-12-12T15:00:52.383Z,-1.61
2022-12-12T15:03:29.443Z,-1.65
2022-12-12T15:06:27.014Z,-1.69
2022-12-12T15:08:55.690Z,-1.72
2022-12-12T15:11:25.575Z,-1.73
2022-12-12T15:13:54.887Z,-1.73
2022-12-12T15:16:29.974Z,-1.72
2022-12-12T15:19:00.200Z,-1.71
2022-12-12T15:21:28.291Z,-1.71
2022-12-12T15:23:55.959Z,-1.72
2022-12-12T15:26:29.995Z,-1.73
2022-12-12T15:28:58.446Z,-1.78
2022-12-12T15:31:27.613Z,-1.80
2022-12-12T15:33:55.425Z,-1.82
2022-12-12T15:36:27.951Z,-1.86
2022-12-12T15:39:11.677Z,-1.90
2022-12-12T15:41:39.431Z,-1.98
2022-12-12T15:44:07.432Z,-2.02
2022-12-12T15:46:37.104Z,-2.08
2022-12-12T15:49:04.981Z,-2.12
2022-12-12T15:51:33.165Z,-2.15
2022-12-12T15:54:01.600Z,-2.20
2022-12-12T15:56:30.218Z,-2.20
2022-12-12T15:59:16.497Z,-2.18
2022-12-12T16:01:45.496Z,-2.21
2022-12-12T16:04:25.437Z,-2.22
2022-12-12T16:06:53.099Z,-2.22
2022-12-12T16:09:23.041Z,-2.25
2022-12-12T16:11:51.795Z,-2.29
2022-12-12T16:14:38.923Z,-2.31
2022-12-12T16:17:13.295Z,-2.35
2022-12-12T16:19:43.857Z,-2.38
2022-12-12T16:22:29.197Z,-2.42
2022-12-12T16:25:10.137Z,-2.47
2022-12-12T16:27:37.751Z,-2.54
2022-12-12T16:30:06.542Z,-2.59
2022-12-12T16:32:36.148Z,-2.67
2022-12-12T16:35:04.583Z,-2.75
2022-12-12T16:37:33.558Z,-2.84
2022-12-12T16:40:01.221Z,-2.90
2022-12-12T16:42:29.492Z,-2.92
2022-12-12T16:44:57.136Z,-2.93
2022-12-12T16:47:25.909Z,-2.90
2022-12-12T16:49:54.859Z,-2.91
2022-12-12T16:52:22.470Z,-2.91
2022-12-12T16:54:53.896Z,-2.89
2022-12-12T16:57:21.802Z,-2.89
2022-12-12T16:59:49.483Z,-2.85
2022-12-12T17:02:20.363Z,-2.85
2022-12-12T17:04:48.457Z,-2.81
2022-12-12T17:07:17.746Z,-2.77
2022-12-12T17:09:45.474Z,-2.76
2022-12-12T17:12:13.454Z,-2.73
2022-12-12T17:14:41.215Z,-2.72
2022-12-12T17:17:08.797Z,-2.70
2022-12-12T17:19:36.519Z,-2.67
2022-12-12T17:22:04.588Z,-2.65
2022-12-12T17:24:33.609Z,-2.66
2022-12-12T17:27:01.277Z,-2.69
2022-12-12T17:29:28.955Z,-2.69
2022-12-12T17:31:56.760Z,-2.71
2022-12-12T17:34:24.366Z,-2.72
2022-12-12T17:36:51.979Z,-2.75
2022-12-12T17:39:19.615Z,-2.78
2022-12-12T17:41:48.568Z,-2.80
2022-12-12T17:44:16.963Z,-2.82
2022-12-12T17:46:44.558Z,-2.87
2022-12-12T17:49:12.130Z,-2.87
2022-12-12T17:51:39.775Z,-2.89
2022-12-12T17:54:07.464Z,-2.92
2022-12-12T17:56:35.080Z,-2.95
2022-12-12T17:59:06.055Z,-2.97
2022-12-12T18:01:33.792Z,-2.98
2022-12-12T18:04:03.585Z,-3.00
2022-12-12T18:06:33.235Z,-3.05
2022-12-12T18:09:01.752Z,-3.08
2022-12-12T18:11:31.552Z,-3.10
2022-12-12T18:14:01.611Z,-3.12
2022-12-12T18:16:32.230Z,-3.15
2022-12-12T18:19:00.573Z,-3.16
2022-12-12T18:24:19.884Z,-3.15
2022-12-12T18:26:51.529Z,-3.14
2022-12-12T18:29:19.245Z,-3.11
2022-12-12T18:31:48.424Z,-3.11
2022-12-12T18:34:16.268Z,-3.10
2022-12-12T18:36:43.929Z,-3.08
2022-12-12T18:39:11.706Z,-3.07
2022-12-12T18:41:39.563Z,-3.05
2022-12-12T18:44:09.027Z,-3.04
2022-12-12T18:46:42.859Z,-3.02
2022-12-12T18:49:15.393Z,-3.01
2022-12-12T18:51:44.115Z,-2.98
2022-12-12T18:54:15.568Z,-2.97
2022-12-12T18:56:45.252Z,-2.95
2022-12-12T18:59:13.544Z,-2.93
2022-12-12T19:01:41.483Z,-2.91
2022-12-12T19:04:12.464Z,-2.90
2022-12-12T19:06:44.393Z,-2.87
2022-12-12T19:09:14.537Z,-2.84
2022-12-12T19:11:43.534Z,-2.81
2022-12-12T19:14:12.779Z,-2.76
2022-12-12T19:16:40.533Z,-2.72
2022-12-12T19:19:09.391Z,-2.69
2022-12-12T19:21:38.400Z,-2.64
2022-12-12T19:24:10.533Z,-2.60
2022-12-12T19:26:39.187Z,-2.59
2022-12-12T19:29:08.831Z,-2.54
2022-12-12T19:31:36.484Z,-2.49
2022-12-12T19:34:05.095Z,-2.47
2022-12-12T19:36:33.280Z,-2.45
2022-12-12T19:39:02.906Z,-2.42
2022-12-12T19:41:32.191Z,-2.40
2022-12-12T19:44:01.706Z,-2.39
2022-12-12T19:46:32.654Z,-2.38
2022-12-12T19:49:01.976Z,-2.36
2022-12-12T19:51:32.550Z,-2.34
2022-12-12T19:54:01.626Z,-2.32
2022-12-12T19:56:31.862Z,-2.31
2022-12-12T19:59:01.899Z,-2.30
2022-12-12T20:01:31.362Z,-2.29
2022-12-12T20:04:02.830Z,-2.27
2022-12-12T20:06:30.848Z,-2.26
2022-12-12T20:08:59.552Z,-2.25
2022-12-12T20:11:27.881Z,-2.23
2022-12-12T20:13:57.176Z,-2.24
2022-12-12T20:16:28.148Z,-2.23
2022-12-12T20:18:56.230Z,-2.25
2022-12-12T20:21:59.292Z,-2.26
2022-12-12T20:24:15.334Z,-2.26
2022-12-12T20:26:43.648Z,-2.26
2022-12-12T20:29:13.244Z,-2.26
2022-12-12T20:31:45.427Z,-2.27
2022-12-12T20:34:14.139Z,-2.30
2022-12-12T20:36:44.069Z,-2.32
2022-12-12T20:39:16.105Z,-2.31
2022-12-12T20:41:45.428Z,-2.31
2022-12-12T20:44:14.474Z,-2.32
2022-12-12T20:46:45.415Z,-2.35
2022-12-12T20:49:15.345Z,-2.35
2022-12-12T20:51:55.254Z,-2.38
2022-12-12T20:54:24.520Z,-2.41
2022-12-12T20:56:52.893Z,-2.44
2022-12-12T20:59:20.531Z,-2.48
2022-12-12T21:01:49.563Z,-2.51
2022-12-12T21:04:17.385Z,-2.52
2022-12-12T21:06:49.373Z,-2.56
2022-12-12T21:09:23.202Z,-2.58
2022-12-12T21:11:52.289Z,-2.59
2022-12-12T21:14:19.967Z,-2.61
2022-12-12T21:16:48.973Z,-2.62
2022-12-12T21:19:18.726Z,-2.64
2022-12-12T21:21:46.824Z,-2.66
2022-12-12T21:24:17.779Z,-2.67
2022-12-12T21:26:46.194Z,-2.70
2022-12-12T21:29:15.346Z,-2.74
2022-12-12T21:31:50.471Z,-2.78
2022-12-12T21:34:21.369Z,-2.80
2022-12-12T21:36:51.617Z,-2.85
2022-12-12T21:39:19.279Z,-2.90
2022-12-12T21:41:47.046Z,-2.95
2022-12-12T21:44:14.668Z,-3.00
2022-12-12T21:46:43.997Z,-3.05
2022-12-12T21:49:26.015Z,-3.11
2022-12-12T21:51:56.946Z,-3.20
2022-12-12T21:54:25.010Z,-3.28
2022-12-12T21:56:52.951Z,-3.34
2022-12-12T21:59:20.635Z,-3.41
2022-12-12T22:01:48.327Z,-3.45
2022-12-12T22:04:16.042Z,-3.51
2022-12-12T22:06:45.771Z,-3.53
2022-12-12T22:09:15.336Z,-3.59
2022-12-12T22:11:49.782Z,-3.62
2022-12-12T22:14:21.184Z,-3.65
2022-12-12T22:16:49.063Z,-3.68
2022-12-12T22:19:17.104Z,-3.69
2022-12-12T22:21:46.159Z,-3.72
2022-12-12T22:24:15.629Z,-3.71
2022-12-12T22:26:45.196Z,-3.69
2022-12-12T22:29:14.764Z,-3.67
2022-12-12T22:31:43.527Z,-3.68
2022-12-12T22:34:13.694Z,-3.68
2022-12-12T22:36:41.532Z,-3.68
2022-12-12T22:39:18.794Z,-3.70
2022-12-12T22:41:47.045Z,-3.72
2022-12-12T22:44:16.822Z,-3.74
2022-12-12T22:46:45.936Z,-3.77
2022-12-12T22:49:15.505Z,-3.80
2022-12-12T22:51:44.073Z,-3.84
2022-12-12T22:54:12.015Z,-3.86
2022-12-12T22:56:42.183Z,-3.91
2022-12-12T22:59:13.295Z,-3.94
2022-12-12T23:01:41.914Z,-3.97
2022-12-12T23:04:11.291Z,-3.99
2022-12-12T23:06:38.928Z,-4.02
2022-12-12T23:09:09.444Z,-4.05
2022-12-12T23:11:37.591Z,-4.07
2022-12-12T23:14:08.817Z,-4.09
2022-12-12T23:16:37.085Z,-4.12
2022-12-12T23:19:06.249Z,-4.15
2022-12-12T23:21:35.535Z,-4.16
2022-12-12T23:24:03.719Z,-4.18
2022-12-12T23:26:32.898Z,-4.17
2022-12-12T23:29:01.188Z,-4.17
2022-12-12T23:31:32.172Z,-4.17
2022-12-12T23:34:02.271Z,-4.19
2022-12-12T23:36:31.100Z,-4.22
2022-12-12T23:39:00.568Z,-4.26
2022-12-12T23:41:28.850Z,-4.26
2022-12-12T23:43:58.282Z,-4.27
2022-12-12T23:46:29.623Z,-4.26
2022-12-12T23:48:59.803Z,-4.27
2022-12-12T23:51:29.426Z,-4.27
2022-12-12T23:53:57.680Z,-4.28
2022-12-12T23:56:25.661Z,-4.25
2022-12-12T23:58:53.783Z,-4.20
